首页
METAR-TAF:

METAR-TAF

机场 :

Kapuskasing, 安大略省, 加拿大

纬度: 49-25N, 经度: 082-28W, 海拔: 227米

当前天气观测

该预报发布于1小时和14分钟前的07:00 UTC
风速12节,风向西南
温度 -12°C
湿度 72%
气压 1022 hPa
能見度: 24.1公里
少量云层高于11000英尺
多云层高于12000英尺
阴天层高于13000英尺

METAR: CYYU 210700Z 23012KT 15SM FEW110 BKN120 OVC130 M12/M16 A3018 RMK AC1AC5AC2 SLP242

时间: 03:14 (08:14 UTC)

预报

该预报发布于36分钟前的07:38 UTC
预报有效从21日的 08点(UTC)到 21日的 20点(UTC)
风速10节,风向西南
能見度: 10公里
少量云层高于2000英尺
多云层高于14000英尺
从 21日的 0900点(UTC)
风速12节,风向西转西南
能見度: 10公里
少量云层高于2000英尺
多云层高于10000英尺
短暂存在
从 21日的 09点(UTC)到 21日的 11点(UTC)
能見度: 10公里
散云层高于2000英尺
阴天层高于10000英尺
小阵雪
从 21日的 1100点(UTC)
风速12节,风向西
能見度: 10公里
少量云层高于2000英尺
阴天层高于4000英尺
短暂存在
从 21日的 11点(UTC)到 21日的 15点(UTC)
能見度: 4.8公里
多云层高于2000英尺
阴天层高于4000英尺
小阵雪
从 21日的 1500点(UTC)
风速12节,风向西
能見度: 10公里
散云层高于2000英尺
阴天层高于4000英尺
短暂存在
从 21日的 15点(UTC)到 21日的 19点(UTC)
阴天层高于2000英尺
从 21日的 1900点(UTC)
风速12节,风向西转西南
能見度: 10公里
多云层高于3000英尺

TAF: CYYU 210738Z 2108/2120 23010KT P6SM FEW020 BKN140 FM210900 25012KT P6SM FEW020 BKN100 TEMPO 2109/2111 P6SM -SHSN SCT020 OVC100 FM211100 26012KT P6SM FEW020 OVC040 TEMPO 2111/2115 3SM -SHSN BKN020 OVC040 FM211500 26012KT P6SM SCT020 OVC040 TEMPO 2115/2119 OVC020 FM211900 25012KT P6SM BKN030 RMK NXT FCST BY 211400Z

超过4000个机场的气象观测和天气预报(METAR&TAF报告)。

可查询的气象台以黄色和红色小点在地图上表示。

将鼠标移到小点上方,可查看气象台名称。

然后点击查看天气观测和预报。

如需切换地图:点击带黑十字的绿色按钮放大地图;点击带横线的绿色按钮缩小地图;或者点击绿色箭头查看邻近地区的地图。


METAR-TAF: